Time;durP1;ratioP1;P1;durP2;ratioP2;P2;SDS_P1;SDS_P2;PMS_P1;PMS_P2;Temp;Humidity;BMP_temperature;BMP_pressure;BME280_temperature;BME280_humidity;BME280_pressure;Samples;Min_cycle;Max_cycle;Signal;HPM_P1;HPM_P2
2022/01/18 00:01:26;;;;;;;0.50;0.10;;;8.40;1.00;;;;;;5014238;28;20465;-75
2022/01/18 00:03:55;;;;;;;0.50;0.20;;;8.40;1.00;;;;;;5013677;28;20588;-76
2022/01/18 00:06:23;;;;;;;0.50;0.10;;;8.40;1.00;;;;;;5014285;28;20825;-77
2022/01/18 00:08:51;;;;;;;0.50;0.10;;;8.40;1.00;;;;;;5015537;28;20468;-74
2022/01/18 00:11:22;;;;;;;0.50;0.10;;;8.40;1.00;;;;;;5014675;28;20810;-75
2022/01/18 00:13:57;;;;;;;0.50;0.10;;;8.50;1.00;;;;;;5016082;28;20456;-77
2022/01/18 00:16:31;;;;;;;0.50;0.20;;;8.40;1.00;;;;;;5023341;28;20459;-74
2022/01/18 00:19:05;;;;;;;0.50;0.10;;;8.40;1.00;;;;;;5040293;28;21150;-77
2022/01/18 00:21:49;;;;;;;0.50;0.20;;;8.40;1.00;;;;;;5034899;28;20451;-76
2022/01/18 00:24:17;;;;;;;0.50;0.10;;;8.40;1.00;;;;;;5031843;28;20539;-77
2022/01/18 00:26:45;;;;;;;0.73;0.73;;;8.40;1.00;;;;;;5027917;28;20477;-77
2022/01/18 00:29:17;;;;;;;0.50;0.10;;;8.30;1.00;;;;;;5026186;28;20477;-77
2022/01/18 00:31:57;;;;;;;0.50;0.20;;;8.30;1.00;;;;;;5035481;28;20750;-76
2022/01/18 00:34:28;;;;;;;0.50;0.20;;;8.30;1.00;;;;;;5045113;28;20490;-77
2022/01/18 00:37:12;;;;;;;0.50;0.10;;;8.30;1.00;;;;;;5036139;28;20525;-77
2022/01/18 00:39:41;;;;;;;0.50;0.10;;;8.30;1.00;;;;;;5035597;28;20471;-75
2022/01/18 00:42:10;;;;;;;0.50;0.10;;;8.30;1.00;;;;;;5034989;28;20457;-77
2022/01/18 00:44:39;;;;;;;0.50;0.10;;;8.30;1.00;;;;;;5034730;28;20502;-76
2022/01/18 00:47:07;;;;;;;0.50;0.10;;;8.30;1.00;;;;;;5034534;28;20456;-77
2022/01/18 00:49:40;;;;;;;0.50;0.10;;;8.30;1.00;;;;;;5015321;28;21149;-77
2022/01/18 00:52:09;;;;;;;0.50;0.10;;;8.30;1.00;;;;;;5023484;28;20442;-77
2022/01/18 00:54:41;;;;;;;0.50;0.10;;;8.20;1.00;;;;;;5014406;28;20451;-77
2022/01/18 00:57:09;;;;;;;0.50;0.10;;;8.30;1.00;;;;;;5014873;28;20604;-77
2022/01/18 00:59:40;;;;;;;0.50;0.10;;;8.30;1.00;;;;;;5017147;28;20478;-75
2022/01/18 01:02:15;;;;;;;0.50;0.10;;;8.30;1.00;;;;;;5030682;28;20485;-77
2022/01/18 01:04:47;;;;;;;0.50;0.10;;;8.40;1.00;;;;;;5015233;28;20455;-76
2022/01/18 01:07:17;;;;;;;0.50;0.10;;;8.40;1.00;;;;;;5014562;28;20526;-76
2022/01/18 01:09:45;;;;;;;0.50;0.10;;;8.40;1.00;;;;;;5013350;28;20491;-75
2022/01/18 01:12:14;;;;;;;0.50;0.10;;;8.40;1.00;;;;;;5013372;28;20451;-76
2022/01/18 01:14:45;;;;;;;0.50;0.10;;;8.50;1.00;;;;;;5032467;28;20469;-77
2022/01/18 01:17:28;;;;;;;0.50;0.10;;;8.40;1.00;;;;;;5024939;28;20462;-75
2022/01/18 01:34:17;;;;;;;0.50;0.17;;;8.30;1.00;;;;;;5015914;28;20546;-76
2022/01/18 01:42:56;;;;;;;0.50;0.10;;;8.30;1.00;;;;;;5013656;28;20452;-77
2022/01/18 01:45:26;;;;;;;0.50;0.10;;;8.30;1.00;;;;;;5026468;28;20454;-76
2022/01/18 01:47:56;;;;;;;0.50;0.10;;;8.40;1.00;;;;;;5014521;28;20450;-77
2022/01/18 01:50:28;;;;;;;0.50;0.10;;;8.40;1.00;;;;;;5014814;28;20462;-77
2022/01/18 01:52:56;;;;;;;0.50;0.10;;;8.40;1.00;;;;;;5012886;28;20454;-77
2022/01/18 01:55:25;;;;;;;0.50;0.10;;;8.40;1.00;;;;;;5014521;28;20451;-77
2022/01/18 01:57:53;;;;;;;0.50;0.10;;;8.30;1.00;;;;;;5016899;28;20458;-77
2022/01/18 02:00:21;;;;;;;0.50;0.20;;;8.30;1.00;;;;;;5018071;28;20704;-76
2022/01/18 02:02:49;;;;;;;0.50;0.10;;;8.30;1.00;;;;;;5000456;28;20496;-77
2022/01/18 02:05:20;;;;;;;0.50;0.10;;;8.40;1.00;;;;;;5012828;28;20454;-76
2022/01/18 02:07:48;;;;;;;0.50;0.10;;;8.30;1.00;;;;;;5014086;28;20982;-76
2022/01/18 02:10:16;;;;;;;0.50;0.10;;;8.30;1.00;;;;;;5013205;28;20484;-76
2022/01/18 02:12:44;;;;;;;0.50;0.10;;;8.40;1.00;;;;;;5034945;28;20454;-76
2022/01/18 02:15:15;;;;;;;0.50;0.10;;;8.30;1.00;;;;;;5037231;28;20450;-77
2022/01/18 02:23:20;;;;;;;0.50;0.10;;;8.30;1.00;;;;;;5038494;28;20529;-77
2022/01/18 02:25:48;;;;;;;0.50;0.20;;;8.40;1.00;;;;;;5016872;28;20450;-77
2022/01/18 02:28:17;;;;;;;0.50;0.10;;;8.40;1.00;;;;;;5024202;28;20819;-77
2022/01/18 02:30:45;;;;;;;0.50;0.10;;;8.40;1.00;;;;;;5021285;28;20485;-76
2022/01/18 02:33:14;;;;;;;0.50;0.10;;;8.40;1.00;;;;;;5036128;28;20446;-76
2022/01/18 02:35:45;;;;;;;0.50;0.10;;;8.40;1.00;;;;;;5035384;28;20449;-75
2022/01/18 02:38:14;;;;;;;0.50;0.10;;;8.40;1.00;;;;;;5035603;28;20544;-77
2022/01/18 02:40:44;;;;;;;0.50;0.10;;;8.40;1.00;;;;;;5023834;28;20548;-77
2022/01/18 02:45:59;;;;;;;0.50;0.10;;;8.50;1.00;;;;;;5024522;28;20859;-77
2022/01/18 02:48:27;;;;;;;0.50;0.10;;;8.50;1.00;;;;;;5016083;28;20459;-75
2022/01/18 02:50:56;;;;;;;0.50;0.10;;;8.50;1.00;;;;;;5017671;28;21177;-77
2022/01/18 02:53:25;;;;;;;0.50;0.10;;;8.50;1.00;;;;;;5035173;28;20448;-76
2022/01/18 02:55:55;;;;;;;0.50;0.10;;;8.60;1.00;;;;;;5036161;28;20478;-76
2022/01/18 02:58:27;;;;;;;0.50;0.10;;;8.50;1.00;;;;;;5040604;28;20967;-77
2022/01/18 03:03:41;;;;;;;0.50;0.10;;;8.60;1.00;;;;;;5025342;28;20958;-76
2022/01/18 03:06:10;;;;;;;0.50;0.10;;;8.60;1.00;;;;;;5015205;28;20473;-76
2022/01/18 03:08:38;;;;;;;0.50;0.10;;;8.60;1.00;;;;;;5036535;28;20457;-76
2022/01/18 03:11:06;;;;;;;0.50;0.10;;;8.50;1.00;;;;;;5036731;28;20463;-75
2022/01/18 03:13:33;;;;;;;0.50;0.10;;;8.60;1.00;;;;;;5016276;28;20447;-76
2022/01/18 03:16:01;;;;;;;0.50;0.10;;;8.60;1.00;;;;;;5017970;28;20456;-76
2022/01/18 03:18:29;;;;;;;0.50;0.10;;;8.60;1.00;;;;;;5035760;28;20451;-76
2022/01/18 03:20:57;;;;;;;0.50;0.10;;;8.60;1.00;;;;;;5033839;28;20461;-76
2022/01/18 03:23:26;;;;;;;0.50;0.10;;;8.60;1.00;;;;;;5015717;28;20455;-76
2022/01/18 03:25:57;;;;;;;0.50;0.10;;;8.60;1.00;;;;;;5014483;28;20450;-75
2022/01/18 03:28:25;;;;;;;0.60;0.10;;;8.60;1.00;;;;;;5027092;28;20449;-75
2022/01/18 03:30:57;;;;;;;0.50;0.10;;;8.60;1.00;;;;;;5037295;28;20565;-76
2022/01/18 03:33:28;;;;;;;0.50;0.10;;;8.60;1.00;;;;;;5015089;28;20813;-76
2022/01/18 03:35:57;;;;;;;0.50;0.10;;;8.50;1.00;;;;;;5016884;28;20476;-76
2022/01/18 03:38:29;;;;;;;0.50;0.10;;;8.60;1.00;;;;;;5017061;28;20456;-76
2022/01/18 03:40:58;;;;;;;0.50;0.10;;;8.50;1.00;;;;;;5027622;28;20553;-77
2022/01/18 03:43:26;;;;;;;0.50;0.10;;;8.50;1.00;;;;;;5015248;28;20449;-75
2022/01/18 03:45:59;;;;;;;0.50;0.10;;;8.50;1.00;;;;;;5014876;28;20451;-77
2022/01/18 03:48:31;;;;;;;0.50;0.10;;;8.50;1.00;;;;;;5032388;28;20452;-75
2022/01/18 03:51:01;;;;;;;0.50;0.10;;;8.40;1.00;;;;;;5048797;28;21091;-77
2022/01/18 03:53:30;;;;;;;0.50;0.10;;;8.50;1.00;;;;;;5034130;28;20937;-77
2022/01/18 03:55:59;;;;;;;0.50;0.10;;;8.40;1.00;;;;;;5033412;28;20453;-76
2022/01/18 03:58:26;;;;;;;0.50;0.10;;;8.40;1.00;;;;;;5016476;28;20931;-77
2022/01/18 04:00:54;;;;;;;0.50;0.10;;;8.40;1.00;;;;;;5015136;28;20472;-77
2022/01/18 04:03:22;;;;;;;0.50;0.10;;;8.40;1.00;;;;;;5018066;28;20440;-76
2022/01/18 04:05:52;;;;;;;0.50;0.10;;;8.30;1.00;;;;;;5031478;28;20505;-76
2022/01/18 04:08:20;;;;;;;0.50;0.10;;;8.30;1.00;;;;;;5018955;28;20546;-78
2022/01/18 04:10:50;;;;;;;0.50;0.10;;;8.30;1.00;;;;;;5014729;28;20596;-75
2022/01/18 04:13:18;;;;;;;0.50;0.10;;;8.30;1.00;;;;;;5014300;28;20442;-76
2022/01/18 04:15:46;;;;;;;0.50;0.10;;;8.30;1.00;;;;;;5014486;28;20455;-76
2022/01/18 04:18:24;;;;;;;0.50;0.10;;;8.20;1.00;;;;;;5016418;28;20446;-76
2022/01/18 04:29:11;;;;;;;0.50;0.10;;;8.20;1.00;;;;;;5009273;28;20478;-76
2022/01/18 04:31:39;;;;;;;0.50;0.10;;;8.20;1.00;;;;;;5031541;28;20532;-76
2022/01/18 04:34:07;;;;;;;0.50;0.10;;;8.20;1.00;;;;;;5033782;28;20881;-76
2022/01/18 04:36:36;;;;;;;0.50;0.10;;;8.20;1.00;;;;;;5016844;28;20454;-76
2022/01/18 04:39:04;;;;;;;0.50;0.10;;;8.10;1.00;;;;;;5036491;28;20793;-77
2022/01/18 04:41:35;;;;;;;0.50;0.10;;;8.10;1.00;;;;;;5034300;28;20445;-77
2022/01/18 04:49:34;;;;;;;0.50;0.10;;;8.10;1.00;;;;;;5013230;28;20480;-77
2022/01/18 04:52:02;;;;;;;0.50;0.10;;;8.00;1.00;;;;;;5014966;28;20944;-77
2022/01/18 04:54:30;;;;;;;0.50;0.30;;;8.00;1.00;;;;;;5028275;28;20477;-76
2022/01/18 04:59:45;;;;;;;0.50;0.10;;;8.00;1.00;;;;;;5028958;28;20482;-76
2022/01/18 05:02:13;;;;;;;0.50;0.10;;;7.90;1.00;;;;;;5035074;28;20446;-76
2022/01/18 05:04:43;;;;;;;0.50;0.10;;;7.90;1.00;;;;;;5021470;28;20457;-77
2022/01/18 05:07:13;;;;;;;0.50;0.10;;;7.90;1.00;;;;;;5014243;28;20457;-76
2022/01/18 05:09:42;;;;;;;0.50;0.10;;;7.80;1.00;;;;;;5016836;28;20475;-76
2022/01/18 05:12:18;;;;;;;0.50;0.10;;;7.80;1.00;;;;;;5015323;28;20773;-77
2022/01/18 05:14:47;;;;;;;0.50;0.10;;;7.80;1.00;;;;;;5018916;28;20456;-75
2022/01/18 05:17:34;;;;;;;0.50;0.10;;;7.80;1.00;;;;;;5039727;28;20545;-77
2022/01/18 05:20:25;;;;;;;0.50;0.10;;;7.80;1.00;;;;;;5036493;28;20471;-75
2022/01/18 05:22:59;;;;;;;0.50;0.10;;;7.90;1.00;;;;;;5075103;22;21109;-76
2022/01/18 05:25:29;;;;;;;0.50;0.10;;;7.90;1.00;;;;;;5071421;28;20475;-75
2022/01/18 05:27:59;;;;;;;0.50;0.10;;;7.90;1.00;;;;;;5055610;28;20452;-75
2022/01/18 05:30:29;;;;;;;0.50;0.10;;;8.00;1.00;;;;;;5055824;28;20500;-75
2022/01/18 05:32:57;;;;;;;0.50;0.10;;;8.00;1.00;;;;;;5039728;28;20533;-75
2022/01/18 05:35:26;;;;;;;0.50;0.10;;;8.00;1.00;;;;;;5035211;28;20457;-75
2022/01/18 05:37:54;;;;;;;0.50;0.10;;;8.00;1.00;;;;;;5031907;28;20446;-75
2022/01/18 05:40:23;;;;;;;0.50;0.10;;;8.00;1.00;;;;;;5031777;28;20983;-75
2022/01/18 05:42:51;;;;;;;0.50;0.10;;;8.00;1.00;;;;;;5032125;28;20500;-75
2022/01/18 05:45:21;;;;;;;0.50;0.10;;;8.10;1.00;;;;;;5047800;28;20455;-75
2022/01/18 05:47:50;;;;;;;0.50;0.10;;;8.00;1.00;;;;;;5051624;28;20536;-75
2022/01/18 05:50:18;;;;;;;0.50;0.10;;;8.10;1.00;;;;;;5055169;28;20517;-75
2022/01/18 05:52:45;;;;;;;0.50;0.10;;;8.10;1.00;;;;;;5055412;28;20469;-74
2022/01/18 05:55:14;;;;;;;0.50;0.10;;;8.10;1.00;;;;;;5040477;28;20877;-74
2022/01/18 05:57:41;;;;;;;0.50;0.10;;;8.10;1.00;;;;;;5036033;28;20448;-75
2022/01/18 06:00:19;;;;;;;0.50;0.10;;;8.20;1.00;;;;;;5035856;28;20541;-76
2022/01/18 06:03:00;;;;;;;0.50;0.20;;;8.20;1.00;;;;;;5034731;28;20534;-75
2022/01/18 06:08:17;;;;;;;0.50;0.10;;;8.20;1.00;;;;;;5036920;28;20544;-74
2022/01/18 06:10:45;;;;;;;0.50;0.10;;;8.20;1.00;;;;;;5035384;28;20988;-74
2022/01/18 06:13:14;;;;;;;0.50;0.10;;;8.20;1.00;;;;;;5035883;28;20475;-75
2022/01/18 06:15:42;;;;;;;0.50;0.10;;;8.20;1.00;;;;;;5035062;28;20451;-75
2022/01/18 06:18:12;;;;;;;0.50;0.10;;;8.20;1.00;;;;;;5035719;28;20533;-75
2022/01/18 06:20:40;;;;;;;0.50;0.10;;;8.20;1.00;;;;;;5035271;28;20450;-76
2022/01/18 06:23:08;;;;;;;0.50;0.10;;;8.20;1.00;;;;;;5029858;28;20489;-76
2022/01/18 06:25:37;;;;;;;0.50;0.10;;;;;;;;;;5040141;28;20959;-75
2022/01/18 06:28:07;;;;;;;0.50;0.10;;;8.20;1.00;;;;;;5034878;28;20734;-74
2022/01/18 06:30:35;;;;;;;0.50;0.10;;;8.10;1.00;;;;;;5044583;28;20461;-75
2022/01/18 06:33:03;;;;;;;0.50;0.10;;;8.20;1.00;;;;;;5054969;28;20469;-75
2022/01/18 06:35:34;;;;;;;0.50;0.10;;;8.20;1.00;;;;;;5037955;28;20507;-75
2022/01/18 06:38:02;;;;;;;0.50;0.10;;;8.20;1.00;;;;;;5033299;28;20845;-76
2022/01/18 06:40:30;;;;;;;0.50;0.10;;;8.20;1.00;;;;;;5035157;28;20888;-76
2022/01/18 06:42:58;;;;;;;0.50;0.10;;;8.20;1.00;;;;;;5031844;28;20798;-75
2022/01/18 06:45:27;;;;;;;0.50;0.10;;;8.20;1.00;;;;;;5036069;28;20458;-76
2022/01/18 06:47:55;;;;;;;0.50;0.10;;;8.20;1.00;;;;;;5034600;28;20442;-76
2022/01/18 06:50:23;;;;;;;0.50;0.10;;;8.10;1.00;;;;;;5035313;28;20486;-74
2022/01/18 06:52:55;;;;;;;0.50;0.10;;;8.10;1.00;;;;;;5035090;28;21008;-75
2022/01/18 06:55:23;;;;;;;0.50;0.10;;;8.10;1.00;;;;;;5035218;28;21014;-75
2022/01/18 06:57:51;;;;;;;0.50;0.10;;;8.10;1.00;;;;;;5035271;28;20450;-75
2022/01/18 07:00:20;;;;;;;0.50;0.10;;;8.10;1.00;;;;;;5034439;28;20461;-75
2022/01/18 07:02:47;;;;;;;0.50;0.10;;;8.10;1.00;;;;;;5034475;28;20840;-76
2022/01/18 07:05:16;;;;;;;0.50;0.10;;;8.10;1.00;;;;;;5048074;28;20452;-76
2022/01/18 07:07:47;;;;;;;0.50;0.10;;;8.10;1.00;;;;;;5054547;28;20446;-76
2022/01/18 07:10:16;;;;;;;0.50;0.10;;;8.20;1.00;;;;;;5054572;28;20460;-76
2022/01/18 07:12:44;;;;;;;0.50;0.10;;;8.30;1.00;;;;;;5054890;28;20513;-75
2022/01/18 07:15:14;;;;;;;0.50;0.10;;;8.30;1.00;;;;;;5036557;28;20462;-75
2022/01/18 07:17:42;;;;;;;0.50;0.10;;;8.30;1.00;;;;;;5033715;28;20466;-75
2022/01/18 07:20:10;;;;;;;0.50;0.10;;;8.30;1.00;;;;;;5027311;28;20936;-74
2022/01/18 07:22:42;;;;;;;0.50;0.10;;;8.30;1.00;;;;;;5034582;28;20466;-75
2022/01/18 07:25:12;;;;;;;0.50;0.30;;;8.30;1.00;;;;;;5046343;28;20510;-74
2022/01/18 07:27:41;;;;;;;0.50;0.10;;;8.30;1.00;;;;;;5054156;28;20444;-75
2022/01/18 07:30:11;;;;;;;0.50;0.10;;;8.30;1.00;;;;;;5054912;28;20437;-74
2022/01/18 07:32:39;;;;;;;0.50;0.10;;;8.30;1.00;;;;;;5054926;28;20513;-76
2022/01/18 07:35:08;;;;;;;0.50;0.10;;;8.30;1.00;;;;;;5041446;28;20931;-74
2022/01/18 07:37:36;;;;;;;0.50;0.10;;;8.20;1.00;;;;;;5033955;28;20451;-75
2022/01/18 07:40:06;;;;;;;0.50;0.10;;;8.20;1.00;;;;;;5033828;28;20465;-75
2022/01/18 07:42:33;;;;;;;0.50;0.10;;;8.20;1.00;;;;;;5033653;28;20835;-75
2022/01/18 07:45:03;;;;;;;0.50;0.10;;;8.20;1.00;;;;;;5033876;28;20985;-76
2022/01/18 07:47:31;;;;;;;0.50;0.10;;;8.20;1.00;;;;;;5033906;28;20468;-76
2022/01/18 07:49:59;;;;;;;0.50;0.30;;;8.20;1.00;;;;;;5033949;28;20473;-75
2022/01/18 07:52:27;;;;;;;0.50;0.10;;;8.20;1.00;;;;;;5033350;28;20482;-75
2022/01/18 07:54:55;;;;;;;0.50;0.10;;;8.20;1.00;;;;;;5041223;28;20940;-75
2022/01/18 07:57:22;;;;;;;0.50;0.10;;;8.30;1.00;;;;;;5053286;28;20456;-75
2022/01/18 07:59:50;;;;;;;0.50;0.10;;;8.30;1.00;;;;;;5053677;28;20445;-75
2022/01/18 08:02:20;;;;;;;2.10;1.70;;;8.30;1.00;;;;;;5047587;28;20464;-76
2022/01/18 08:04:48;;;;;;;0.50;0.10;;;8.30;1.00;;;;;;5036443;28;20453;-75
2022/01/18 08:07:16;;;;;;;0.50;0.10;;;8.30;1.00;;;;;;5033345;28;20453;-75
2022/01/18 08:09:44;;;;;;;0.50;0.13;;;8.30;1.00;;;;;;5029068;28;20470;-75
2022/01/18 08:12:12;;;;;;;0.50;0.10;;;8.30;1.00;;;;;;5032291;28;20473;-75
2022/01/18 08:14:45;;;;;;;0.50;0.10;;;;;;;;;;5033106;28;20464;-76
2022/01/18 08:17:34;;;;;;;0.50;0.10;;;8.30;1.00;;;;;;5031890;28;20933;-76
2022/01/18 08:20:05;;;;;;;0.50;0.10;;;;;;;;;;5033682;28;20435;-75
2022/01/18 08:22:35;;;;;;;0.50;0.10;;;;;;;;;;5035637;28;20547;-76
2022/01/18 08:25:09;;;;;;;0.50;0.10;;;;;;;;;;5037875;28;20453;-75
2022/01/18 08:27:37;;;;;;;0.50;0.20;;;;;;;;;;5054118;28;20446;-75
2022/01/18 08:30:08;;;;;;;0.50;0.10;;;8.30;1.00;;;;;;5054818;28;20460;-75
2022/01/18 08:32:38;;;;;;;0.50;0.10;;;;;;;;;;5054141;28;20852;-76
2022/01/18 08:35:07;;;;;;;0.50;0.10;;;8.40;1.00;;;;;;5041512;28;20446;-75
2022/01/18 08:37:35;;;;;;;0.50;0.10;;;8.40;1.00;;;;;;5033565;28;20905;-75
2022/01/18 08:40:03;;;;;;;0.50;0.20;;;8.30;1.00;;;;;;5033315;28;20450;-75
2022/01/18 08:42:31;;;;;;;0.50;0.10;;;8.30;1.00;;;;;;5033091;28;20482;-75
2022/01/18 08:44:59;;;;;;;0.50;0.20;;;8.30;1.00;;;;;;5045182;28;20452;-76
2022/01/18 08:47:28;;;;;;;0.53;0.10;;;;;;;;;;5052859;28;20445;-76
2022/01/18 08:49:57;;;;;;;0.50;0.20;;;;;;;;;;5053107;28;20471;-75
2022/01/18 08:52:26;;;;;;;0.50;0.10;;;8.30;1.00;;;;;;5028577;28;20492;-75
2022/01/18 08:54:54;;;;;;;0.50;0.10;;;8.30;1.00;;;;;;5035199;28;20458;-76
2022/01/18 08:57:24;;;;;;;0.50;0.10;;;8.30;1.00;;;;;;5032121;28;20456;-76
2022/01/18 08:59:53;;;;;;;0.50;0.10;;;;;;;;;;5032568;28;20537;-76
2022/01/18 09:02:22;;;;;;;0.50;0.10;;;8.40;1.00;;;;;;5032501;28;20935;-75
2022/01/18 09:04:50;;;;;;;0.50;0.10;;;8.40;1.00;;;;;;5042584;28;20449;-76
2022/01/18 09:07:20;;;;;;;0.60;0.47;;;8.40;1.00;;;;;;5044154;28;20466;-76
2022/01/18 09:09:51;;;;;;;0.50;0.10;;;8.40;1.00;;;;;;5027927;28;20458;-75
2022/01/18 09:12:19;;;;;;;0.77;0.77;;;8.40;1.00;;;;;;5032473;28;20507;-74
2022/01/18 09:14:47;;;;;;;0.50;0.10;;;8.40;1.00;;;;;;5029412;28;20476;-75
2022/01/18 09:17:15;;;;;;;0.50;0.10;;;8.40;1.00;;;;;;5034410;28;20556;-75
2022/01/18 09:19:43;;;;;;;0.50;0.10;;;8.50;1.00;;;;;;5034306;28;20443;-76
2022/01/18 09:22:11;;;;;;;0.50;0.10;;;8.50;1.00;;;;;;5031934;28;20442;-75
2022/01/18 09:24:40;;;;;;;0.50;0.13;;;8.50;1.00;;;;;;5031455;28;20450;-76
2022/01/18 09:27:08;;;;;;;0.50;0.10;;;8.50;1.00;;;;;;5032006;28;20999;-75
2022/01/18 09:29:36;;;;;;;0.50;0.10;;;8.50;1.00;;;;;;5032339;28;20454;-77
2022/01/18 09:32:04;;;;;;;0.50;0.10;;;8.60;1.00;;;;;;5032617;28;20451;-77
2022/01/18 09:34:32;;;;;;;0.50;0.10;;;8.60;1.00;;;;;;5039294;28;20454;-77
2022/01/18 09:37:00;;;;;;;0.50;0.10;;;8.70;1.00;;;;;;5051689;28;20446;-77
2022/01/18 09:39:28;;;;;;;0.50;0.10;;;8.80;1.00;;;;;;5052311;28;20448;-78
2022/01/18 09:42:02;;;;;;;0.50;0.10;;;;;;;;;;5054819;28;20829;-77
2022/01/18 09:44:30;;;;;;;0.50;0.10;;;8.80;1.00;;;;;;5053442;28;20636;-78
2022/01/18 09:46:58;;;;;;;0.50;0.10;;;9.00;1.00;;;;;;5055285;28;20457;-77
2022/01/18 09:49:26;;;;;;;0.50;0.10;;;9.00;1.00;;;;;;5053112;28;20941;-76
2022/01/18 09:51:57;;;;;;;0.50;0.10;;;9.00;1.00;;;;;;5052497;28;20995;-79
2022/01/18 09:54:25;;;;;;;0.50;0.10;;;9.10;1.00;;;;;;5046670;28;20479;-79
2022/01/18 09:56:53;;;;;;;1.30;1.20;;;;;;;;;;5033611;28;20493;-79
2022/01/18 09:59:23;;;;;;;0.50;0.10;;;;;;;;;;5032352;28;20439;-77
2022/01/18 10:01:51;;;;;;;0.50;0.10;;;;;;;;;;5032323;28;20807;-77
2022/01/18 10:04:22;;;;;;;0.60;0.20;;;9.30;1.00;;;;;;5050993;28;20468;-77
2022/01/18 10:06:52;;;;;;;0.50;0.10;;;9.20;1.00;;;;;;5054007;28;20768;-77
2022/01/18 10:09:21;;;;;;;0.60;0.10;;;9.30;1.00;;;;;;5058563;28;20457;-78
2022/01/18 10:12:10;;;;;;;0.50;0.10;;;9.30;1.00;;;;;;5057370;28;20448;-78
2022/01/18 10:14:41;;;;;;;0.60;0.10;;;9.20;1.00;;;;;;5026087;28;20932;-77
2022/01/18 10:17:11;;;;;;;0.50;0.10;;;9.20;1.00;;;;;;5041572;28;20552;-79
2022/01/18 10:19:46;;;;;;;0.50;0.10;;;9.30;1.00;;;;;;5040966;28;20916;-81
2022/01/18 10:22:18;;;;;;;0.50;0.10;;;9.30;1.00;;;;;;5041871;28;20515;-79
2022/01/18 10:24:46;;;;;;;0.60;0.10;;;9.40;1.00;;;;;;5058023;28;20548;-78
2022/01/18 10:27:15;;;;;;;0.60;0.10;;;9.50;1.00;;;;;;5055136;28;21100;-78
2022/01/18 10:29:47;;;;;;;0.60;0.40;;;9.50;1.00;;;;;;5040894;28;20875;-77
2022/01/18 10:32:19;;;;;;;0.60;0.10;;;9.50;1.00;;;;;;5048484;28;20419;-80
2022/01/18 10:35:08;;;;;;;0.50;0.10;;;9.50;1.00;;;;;;5047550;28;20496;-78
2022/01/18 10:37:42;;;;;;;0.60;0.10;;;9.50;1.00;;;;;;5053107;28;20548;-78
2022/01/18 10:40:15;;;;;;;0.60;0.10;;;9.50;1.00;;;;;;5069890;28;20448;-79
2022/01/18 10:42:47;;;;;;;0.53;0.10;;;9.60;1.00;;;;;;5065511;28;20480;-77
2022/01/18 10:45:28;;;;;;;0.60;0.10;;;9.60;1.00;;;;;;5068442;28;20461;-78
2022/01/18 10:47:59;;;;;;;0.60;0.27;;;9.60;1.00;;;;;;5055958;28;20485;-81
2022/01/18 10:50:32;;;;;;;0.60;0.20;;;9.60;1.00;;;;;;5042555;28;20541;-80
2022/01/18 10:53:12;;;;;;;0.60;0.10;;;9.50;1.00;;;;;;5040608;28;20486;-78
2022/01/18 10:55:41;;;;;;;0.60;0.10;;;9.50;1.00;;;;;;5038931;28;20536;-77
2022/01/18 10:58:13;;;;;;;0.60;0.10;;;9.50;1.00;;;;;;5049819;28;20476;-79
2022/01/18 11:00:43;;;;;;;0.60;0.10;;;9.50;1.00;;;;;;5059697;28;20444;-78
2022/01/18 11:03:11;;;;;;;0.60;0.10;;;9.40;1.00;;;;;;5061690;28;21050;-78
2022/01/18 11:05:42;;;;;;;0.60;0.10;;;9.50;1.00;;;;;;5059484;28;20445;-78
2022/01/18 11:08:12;;;;;;;0.50;0.10;;;9.50;1.00;;;;;;5063079;28;20449;-77
2022/01/18 11:10:41;;;;;;;0.60;0.10;;;9.40;1.00;;;;;;5035925;28;20539;-76
2022/01/18 11:13:34;;;;;;;0.50;0.10;;;9.50;1.00;;;;;;5015261;28;20859;-78
2022/01/18 11:16:13;;;;;;;0.53;0.10;;;9.40;1.00;;;;;;5025885;28;20453;-76
2022/01/18 11:18:45;;;;;;;0.50;0.10;;;9.50;1.00;;;;;;5033728;28;20447;-78
2022/01/18 11:21:16;;;;;;;0.60;0.10;;;9.50;1.00;;;;;;5028133;28;20469;-77
2022/01/18 11:23:46;;;;;;;0.53;0.10;;;9.50;1.00;;;;;;5036319;28;20527;-78
2022/01/18 11:26:15;;;;;;;0.60;0.10;;;9.50;1.00;;;;;;5040726;28;20537;-78
2022/01/18 11:28:43;;;;;;;0.50;0.10;;;9.50;1.00;;;;;;5032167;28;20441;-77
2022/01/18 11:31:13;;;;;;;0.60;0.10;;;9.50;1.00;;;;;;5031617;28;20509;-78
2022/01/18 11:33:49;;;;;;;0.60;0.10;;;9.50;1.00;;;;;;5034378;28;20532;-78
2022/01/18 11:36:22;;;;;;;0.50;0.10;;;9.50;1.00;;;;;;5034207;28;20473;-78
2022/01/18 11:38:54;;;;;;;0.60;0.10;;;9.70;1.00;;;;;;5034589;28;20450;-79
2022/01/18 11:41:24;;;;;;;0.57;0.10;;;9.70;1.00;;;;;;5035728;28;20530;-77
2022/01/18 11:43:53;;;;;;;0.60;0.10;;;9.70;1.00;;;;;;5033887;28;20554;-78
2022/01/18 11:46:27;;;;;;;0.60;0.10;;;9.80;1.00;;;;;;5034579;28;20475;-77
2022/01/18 11:49:04;;;;;;;0.60;0.10;;;9.70;1.00;;;;;;5035434;28;20476;-78
2022/01/18 11:51:37;;;;;;;0.60;0.20;;;9.80;1.00;;;;;;5038227;28;20779;-78
2022/01/18 11:54:23;;;;;;;0.57;0.10;;;9.80;1.00;;;;;;5043211;28;20474;-79
2022/01/18 11:56:52;;;;;;;0.60;0.10;;;;;;;;;;5050645;28;20583;-78
2022/01/18 11:59:22;;;;;;;0.60;0.10;;;9.80;1.00;;;;;;5049772;28;20517;-77
2022/01/18 12:01:54;;;;;;;0.60;0.10;;;9.80;1.00;;;;;;5040590;28;20443;-79
2022/01/18 12:05:05;;;;;;;0.60;0.10;;;9.80;1.00;;;;;;5030490;28;20605;-78
2022/01/18 12:07:56;;;;;;;0.60;0.10;;;9.80;1.00;;;;;;5033207;28;20439;-78
2022/01/18 12:10:46;;;;;;;0.60;0.10;;;9.70;1.00;;;;;;5026794;28;20926;-78
2022/01/18 12:13:29;;;;;;;0.60;0.10;;;9.70;1.00;;;;;;5033497;28;20985;-79
2022/01/18 12:15:59;;;;;;;0.60;0.10;;;9.60;1.00;;;;;;5053422;28;20798;-79
2022/01/18 12:18:35;;;;;;;0.60;0.20;;;9.70;1.00;;;;;;5054768;28;20456;-77
2022/01/18 12:21:05;;;;;;;0.60;0.10;;;9.60;1.00;;;;;;5065456;28;20437;-79
2022/01/18 12:23:44;;;;;;;0.60;0.10;;;9.60;1.00;;;;;;5072241;28;20472;-80
2022/01/18 12:26:29;;;;;;;0.60;0.10;;;9.50;1.00;;;;;;5022639;28;20470;-79
2022/01/18 12:29:20;;;;;;;0.57;0.10;;;9.60;1.00;;;;;;5020463;28;20904;-78
2022/01/18 12:35:06;;;;;;;0.50;0.10;;;9.60;1.00;;;;;;5038225;28;20477;-80
2022/01/18 12:37:43;;;;;;;0.50;0.10;;;9.60;1.00;;;;;;5059464;28;20532;-80
2022/01/18 12:40:23;;;;;;;0.50;0.10;;;9.60;1.00;;;;;;5055219;28;20516;-80
2022/01/18 12:45:58;;;;;;;0.60;0.10;;;9.70;1.00;;;;;;5039861;28;20451;-79
2022/01/18 12:48:27;;;;;;;0.50;0.10;;;9.70;1.00;;;;;;5045122;28;20443;-78
2022/01/18 12:51:00;;;;;;;0.60;0.10;;;9.70;1.00;;;;;;5041284;28;20462;-80
2022/01/18 12:53:31;;;;;;;0.50;0.10;;;9.60;1.00;;;;;;5039910;28;20481;-79
2022/01/18 12:56:01;;;;;;;0.60;0.10;;;9.60;1.00;;;;;;5059211;28;20470;-79
2022/01/18 12:58:32;;;;;;;0.53;0.10;;;9.60;1.00;;;;;;5059649;28;20491;-79
2022/01/18 13:01:01;;;;;;;0.50;0.10;;;9.70;1.00;;;;;;5059209;28;20450;-80
2022/01/18 13:03:33;;;;;;;0.60;0.10;;;9.60;1.00;;;;;;5058401;28;20477;-79
2022/01/18 13:06:04;;;;;;;0.60;0.10;;;9.60;1.00;;;;;;5040077;28;20818;-80
2022/01/18 13:08:42;;;;;;;0.50;0.10;;;9.60;1.00;;;;;;5037923;28;20449;-79
2022/01/18 13:11:11;;;;;;;0.60;0.10;;;;;;;;;;5038535;28;20450;-77
2022/01/18 13:13:39;;;;;;;0.60;0.10;;;9.60;1.00;;;;;;5038864;28;20467;-79
2022/01/18 13:25:03;;;;;;;0.60;0.10;;;9.60;1.00;;;;;;5054514;28;20446;-80
2022/01/18 13:27:37;;;;;;;0.60;0.10;;;9.70;1.00;;;;;;5040286;28;20438;-79
2022/01/18 13:30:10;;;;;;;0.60;0.10;;;9.60;1.00;;;;;;5039756;28;20526;-80
2022/01/18 13:32:42;;;;;;;0.60;0.10;;;9.60;1.00;;;;;;5055355;28;20466;-79
2022/01/18 13:35:11;;;;;;;0.60;0.10;;;9.50;1.00;;;;;;5067774;28;20488;-80
2022/01/18 13:37:40;;;;;;;0.50;0.10;;;9.50;1.00;;;;;;5068818;28;20449;-79
2022/01/18 13:40:12;;;;;;;0.60;0.10;;;9.60;1.00;;;;;;5069181;28;20452;-79
2022/01/18 13:42:43;;;;;;;0.60;0.10;;;9.60;1.00;;;;;;5044087;28;20467;-79
2022/01/18 13:45:16;;;;;;;0.60;0.10;;;9.60;1.00;;;;;;5036599;28;20435;-77
2022/01/18 13:47:47;;;;;;;0.60;0.10;;;9.70;1.00;;;;;;5041146;28;20517;-76
2022/01/18 13:50:44;;;;;;;0.60;0.10;;;9.70;1.00;;;;;;5050927;28;20461;-81
2022/01/18 13:53:15;;;;;;;0.60;0.10;;;9.70;1.00;;;;;;4993621;28;20839;-80
2022/01/18 13:55:50;;;;;;;0.60;0.10;;;9.70;1.00;;;;;;5018733;28;20482;-80
2022/01/18 13:58:23;;;;;;;0.60;0.10;;;9.60;1.00;;;;;;5019578;28;20529;-78
2022/01/18 14:00:52;;;;;;;0.50;0.10;;;9.60;1.00;;;;;;5028750;28;20507;-78
2022/01/18 14:03:34;;;;;;;0.50;0.10;;;9.60;1.00;;;;;;5067157;28;21067;-79
2022/01/18 14:06:03;;;;;;;0.57;0.10;;;9.70;1.00;;;;;;5064982;28;20449;-78
2022/01/18 14:08:35;;;;;;;0.60;0.10;;;9.60;1.00;;;;;;5042621;28;20439;-79
2022/01/18 14:11:03;;;;;;;0.60;0.10;;;;;;;;;;5051406;28;20520;-79
2022/01/18 14:13:36;;;;;;;0.50;0.10;;;9.70;1.00;;;;;;5065423;28;20948;-79
2022/01/18 14:16:19;;;;;;;0.50;0.10;;;9.70;1.00;;;;;;5069787;28;20548;-80
2022/01/18 14:18:52;;;;;;;0.60;0.10;;;9.60;1.00;;;;;;5042445;28;20546;-80
2022/01/18 14:21:27;;;;;;;0.60;0.10;;;9.60;1.00;;;;;;5041319;28;20545;-79
2022/01/18 14:24:14;;;;;;;0.50;0.10;;;9.50;1.00;;;;;;5041570;28;20472;-79
2022/01/18 14:26:57;;;;;;;0.50;0.10;;;9.50;1.00;;;;;;5044283;28;20469;-79
2022/01/18 14:29:29;;;;;;;0.60;0.10;;;9.50;1.00;;;;;;5045036;28;20449;-79
2022/01/18 14:32:00;;;;;;;0.60;0.10;;;;;;;;;;5055490;28;20457;-79
2022/01/18 14:34:30;;;;;;;0.60;0.10;;;9.50;1.00;;;;;;5063989;28;20448;-78
2022/01/18 14:37:04;;;;;;;0.60;0.10;;;9.40;1.00;;;;;;5071620;28;20856;-80
2022/01/18 14:39:51;;;;;;;0.50;0.10;;;9.40;1.00;;;;;;5062273;28;20441;-80